createdAt,value
2023-05-07T00:00:53.726Z,31.70
2023-05-07T00:03:23.993Z,31.80
2023-05-07T00:05:55.367Z,31.80
2023-05-07T00:08:25.444Z,31.90
2023-05-07T00:10:55.673Z,31.90
2023-05-07T00:13:25.666Z,31.90
2023-05-07T00:15:56.340Z,32.10
2023-05-07T00:18:26.439Z,32.10
2023-05-07T00:20:56.808Z,32.20
2023-05-07T00:23:26.815Z,32.10
2023-05-07T00:25:56.502Z,32.20
2023-05-07T00:28:26.518Z,32.20
2023-05-07T00:30:56.342Z,32.30
2023-05-07T00:33:26.315Z,32.30
2023-05-07T00:35:59.456Z,32.30
2023-05-07T00:38:29.506Z,32.30
2023-05-07T00:40:59.201Z,32.30
2023-05-07T00:43:30.212Z,32.40
2023-05-07T00:46:00.008Z,32.50
2023-05-07T00:48:30.671Z,32.50
2023-05-07T00:51:00.688Z,32.60
2023-05-07T00:53:30.874Z,32.70
2023-05-07T00:56:01.123Z,32.80
2023-05-07T00:58:30.957Z,32.80
2023-05-07T01:01:00.962Z,33.00
2023-05-07T01:03:30.737Z,33.10
2023-05-07T01:06:03.807Z,33.20
2023-05-07T01:08:35.370Z,33.20
2023-05-07T01:11:06.143Z,33.30
2023-05-07T01:13:37.981Z,33.40
2023-05-07T01:16:09.089Z,33.50
2023-05-07T01:18:39.330Z,33.50
2023-05-07T01:21:13.732Z,33.60
2023-05-07T01:23:45.167Z,33.70
2023-05-07T01:26:18.833Z,33.80
2023-05-07T01:28:49.459Z,33.90
2023-05-07T01:31:20.755Z,34.00
2023-05-07T01:33:52.268Z,34.00
2023-05-07T01:36:25.434Z,34.20
2023-05-07T01:38:55.971Z,34.30
2023-05-07T01:41:25.978Z,34.30
2023-05-07T01:43:57.646Z,34.40
2023-05-07T01:46:30.454Z,34.50
2023-05-07T01:49:01.271Z,34.50
2023-05-07T01:51:31.141Z,34.60
2023-05-07T01:54:01.247Z,34.60
2023-05-07T01:56:31.244Z,34.70
2023-05-07T01:59:02.024Z,34.80
2023-05-07T02:01:32.414Z,34.80
2023-05-07T02:04:02.787Z,35.00
2023-05-07T02:06:33.781Z,35.10
2023-05-07T02:09:08.245Z,35.20
2023-05-07T02:11:38.561Z,35.30
2023-05-07T02:14:08.440Z,35.30
2023-05-07T02:16:38.693Z,35.40
2023-05-07T02:19:08.915Z,35.60
2023-05-07T02:21:39.890Z,35.50
2023-05-07T02:24:12.895Z,35.60
2023-05-07T02:26:46.081Z,35.80
2023-05-07T02:29:16.207Z,35.80
2023-05-07T02:31:46.432Z,35.90
2023-05-07T02:34:16.854Z,36.00
2023-05-07T02:36:49.799Z,35.90
2023-05-07T02:39:23.381Z,36.00
2023-05-07T02:41:53.357Z,36.00
2023-05-07T02:44:23.126Z,36.20
2023-05-07T02:46:54.622Z,36.40
2023-05-07T02:49:25.424Z,36.30
2023-05-07T02:51:55.602Z,36.30
2023-05-07T02:54:30.382Z,36.50
2023-05-07T02:57:00.745Z,36.60
2023-05-07T02:59:31.166Z,36.60
2023-05-07T03:02:01.572Z,36.60
2023-05-07T03:04:31.517Z,36.70
2023-05-07T03:07:01.488Z,36.80
2023-05-07T03:09:31.287Z,36.90
2023-05-07T03:12:01.685Z,36.90
2023-05-07T03:14:31.749Z,37.10
2023-05-07T03:17:02.453Z,37.30
2023-05-07T03:19:33.150Z,37.20
2023-05-07T03:22:03.573Z,37.30
2023-05-07T03:24:33.636Z,37.40
2023-05-07T03:27:03.698Z,37.40
2023-05-07T03:29:33.588Z,37.50
2023-05-07T03:32:03.521Z,37.70
2023-05-07T03:34:34.009Z,37.80
2023-05-07T03:37:03.909Z,37.80
2023-05-07T03:39:34.680Z,37.90
2023-05-07T03:42:05.137Z,38.10
2023-05-07T03:44:39.322Z,38.10
2023-05-07T03:47:10.270Z,38.40
2023-05-07T03:49:40.870Z,38.30
2023-05-07T03:52:13.280Z,38.30
2023-05-07T03:54:43.333Z,38.40
2023-05-07T03:57:15.383Z,38.40
2023-05-07T03:59:45.466Z,38.60
2023-05-07T04:02:15.659Z,38.70
2023-05-07T04:04:45.774Z,38.70
2023-05-07T04:07:17.555Z,38.70
2023-05-07T04:09:51.788Z,38.60
2023-05-07T04:12:22.234Z,38.90
2023-05-07T04:14:52.327Z,38.90
2023-05-07T04:17:22.324Z,38.70
2023-05-07T04:19:52.258Z,38.60
2023-05-07T04:22:23.225Z,38.90
2023-05-07T04:24:53.829Z,39.00
2023-05-07T04:27:24.386Z,39.20
2023-05-07T04:29:54.113Z,39.40
2023-05-07T04:32:24.267Z,39.50
2023-05-07T04:34:55.398Z,39.40
2023-05-07T04:37:25.889Z,39.30
2023-05-07T04:39:56.088Z,39.40
2023-05-07T04:42:27.464Z,39.50
2023-05-07T04:45:01.130Z,39.50
2023-05-07T04:47:32.248Z,39.60
2023-05-07T04:50:03.872Z,39.80
2023-05-07T04:52:34.111Z,39.90
2023-05-07T04:55:04.263Z,40.10
2023-05-07T04:57:40.234Z,40.00
2023-05-07T05:00:11.886Z,39.90
2023-05-07T05:02:43.679Z,39.80
2023-05-07T05:05:17.145Z,39.90
2023-05-07T05:07:54.126Z,40.20
2023-05-07T05:10:25.434Z,40.00
2023-05-07T05:12:55.415Z,40.10
2023-05-07T05:15:26.789Z,40.00
2023-05-07T05:17:57.460Z,40.30
2023-05-07T05:20:27.670Z,40.10
2023-05-07T05:22:58.241Z,40.30
2023-05-07T05:25:28.464Z,40.30
2023-05-07T05:27:59.338Z,40.50
2023-05-07T05:30:29.510Z,40.50
2023-05-07T05:32:59.284Z,40.60
2023-05-07T05:35:30.961Z,40.90
2023-05-07T05:38:02.537Z,41.10
2023-05-07T05:40:32.575Z,40.80
2023-05-07T05:43:02.869Z,41.00
2023-05-07T05:45:34.218Z,41.20
2023-05-07T05:48:04.288Z,41.00
2023-05-07T05:50:34.991Z,40.80
2023-05-07T05:53:05.488Z,40.50
2023-05-07T05:55:36.710Z,40.70
2023-05-07T05:58:07.816Z,41.10
2023-05-07T06:00:42.403Z,40.90
2023-05-07T06:03:14.503Z,40.70
2023-05-07T06:05:45.635Z,40.50
2023-05-07T06:08:17.383Z,40.10
2023-05-07T06:10:47.723Z,40.10
2023-05-07T06:13:18.042Z,40.00
2023-05-07T06:15:48.404Z,39.90
2023-05-07T06:18:18.196Z,39.80
2023-05-07T06:20:48.343Z,40.10
2023-05-07T06:23:27.240Z,40.40
2023-05-07T06:25:57.557Z,40.80
2023-05-07T06:28:38.170Z,41.00
2023-05-07T06:31:17.597Z,41.20
2023-05-07T06:33:57.949Z,41.50
2023-05-07T06:36:33.916Z,41.10
2023-05-07T06:39:12.535Z,40.80
2023-05-07T06:41:42.686Z,40.60
2023-05-07T06:44:20.748Z,40.40
2023-05-07T06:47:01.529Z,40.20
2023-05-07T06:49:31.815Z,40.40
2023-05-07T06:52:01.672Z,40.60
2023-05-07T06:54:32.519Z,40.60
2023-05-07T06:57:03.161Z,40.80
2023-05-07T06:59:34.124Z,41.10
2023-05-07T07:02:04.354Z,41.20
2023-05-07T07:04:34.590Z,41.10
2023-05-07T07:07:08.822Z,41.20
2023-05-07T07:09:39.239Z,41.40
2023-05-07T07:12:14.821Z,41.40
2023-05-07T07:14:45.964Z,41.50
2023-05-07T07:17:16.941Z,41.40
2023-05-07T07:19:47.266Z,41.50
2023-05-07T07:22:17.375Z,41.60
2023-05-07T07:24:47.210Z,41.30
2023-05-07T07:27:21.887Z,41.40
2023-05-07T07:29:55.466Z,41.20
2023-05-07T07:32:29.979Z,41.50
2023-05-07T07:35:00.322Z,41.50
2023-05-07T07:37:33.827Z,41.60
2023-05-07T07:40:04.343Z,41.60
2023-05-07T07:42:35.787Z,41.80
2023-05-07T07:45:06.542Z,41.90
2023-05-07T07:47:39.866Z,41.60
2023-05-07T07:50:12.718Z,41.30
2023-05-07T07:52:45.765Z,41.60
2023-05-07T07:55:23.524Z,41.50
2023-05-07T07:57:56.338Z,41.70
2023-05-07T08:00:27.510Z,41.60
2023-05-07T08:02:59.865Z,41.60
2023-05-07T08:05:35.135Z,41.80
2023-05-07T08:08:08.460Z,41.90
2023-05-07T08:10:41.654Z,41.80
2023-05-07T08:13:20.613Z,41.70
2023-05-07T08:15:53.661Z,41.90
2023-05-07T08:18:23.776Z,41.90
2023-05-07T08:20:53.938Z,41.70
2023-05-07T08:23:26.642Z,41.60
2023-05-07T08:25:57.152Z,41.80
2023-05-07T08:28:27.519Z,41.50
2023-05-07T08:30:59.299Z,41.60
2023-05-07T08:33:30.237Z,41.60
2023-05-07T08:36:00.688Z,41.50
2023-05-07T08:38:31.118Z,41.60
2023-05-07T08:41:01.289Z,41.60
2023-05-07T08:43:36.119Z,41.80
2023-05-07T08:46:08.792Z,41.80
2023-05-07T08:48:43.814Z,41.70
2023-05-07T08:51:19.965Z,41.60
2023-05-07T08:53:51.943Z,41.60
2023-05-07T08:56:28.169Z,41.50
2023-05-07T08:59:01.060Z,41.60
2023-05-07T09:01:32.705Z,41.60
2023-05-07T09:04:06.551Z,41.60
2023-05-07T09:06:37.884Z,41.50
2023-05-07T09:09:08.141Z,41.60
2023-05-07T09:11:37.969Z,41.70
2023-05-07T09:14:09.538Z,41.50
2023-05-07T09:16:43.596Z,41.50
2023-05-07T09:19:14.012Z,41.60
2023-05-07T09:21:47.668Z,41.50
2023-05-07T09:24:19.789Z,41.50
2023-05-07T09:26:49.726Z,41.50
2023-05-07T09:29:20.374Z,41.60
2023-05-07T09:31:50.784Z,41.60
2023-05-07T09:34:21.538Z,41.50
2023-05-07T09:36:52.625Z,41.50
2023-05-07T09:39:22.979Z,41.40
2023-05-07T09:41:54.828Z,41.30
2023-05-07T09:44:34.444Z,41.20
2023-05-07T09:47:08.812Z,41.00
2023-05-07T09:49:48.006Z,41.00
2023-05-07T09:52:22.793Z,41.00
2023-05-07T09:54:58.434Z,41.00
2023-05-07T09:57:32.060Z,40.80
2023-05-07T10:00:06.863Z,40.60
2023-05-07T10:02:54.650Z,40.50
2023-05-07T10:05:34.112Z,40.50
2023-05-07T10:08:05.869Z,40.50
2023-05-07T10:10:40.896Z,40.50
2023-05-07T10:13:14.164Z,40.40
2023-05-07T10:15:51.996Z,40.30
2023-05-07T10:18:32.382Z,40.30
2023-05-07T10:21:18.819Z,40.20
2023-05-07T10:24:00.241Z,40.20
2023-05-07T10:26:33.898Z,40.10
2023-05-07T10:29:09.646Z,40.00
2023-05-07T10:32:11.453Z,39.80
2023-05-07T10:34:46.514Z,39.80
2023-05-07T10:37:17.243Z,39.70
2023-05-07T10:39:47.749Z,39.70
2023-05-07T10:42:19.618Z,39.80
2023-05-07T10:44:54.098Z,39.70
2023-05-07T10:47:28.451Z,39.60
2023-05-07T10:50:24.966Z,39.50
2023-05-07T10:53:26.728Z,39.40
2023-05-07T10:56:34.372Z,39.40
2023-05-07T10:59:34.531Z,39.40
2023-05-07T11:02:16.805Z,39.30
2023-05-07T11:05:26.023Z,39.20
2023-05-07T11:08:15.455Z,39.20
2023-05-07T11:11:06.510Z,39.10
2023-05-07T11:13:52.758Z,39.10
2023-05-07T11:16:45.458Z,38.90
2023-05-07T11:19:56.322Z,38.90
2023-05-07T11:22:46.007Z,38.80
2023-05-07T11:25:22.893Z,38.70
2023-05-07T11:28:00.631Z,38.70
2023-05-07T11:30:31.988Z,38.60
2023-05-07T11:33:02.971Z,38.50
2023-05-07T11:35:35.613Z,38.40
2023-05-07T11:38:09.830Z,38.40
2023-05-07T11:40:53.220Z,38.20
2023-05-07T11:43:23.324Z,38.10
2023-05-07T11:45:54.367Z,37.90
2023-05-07T11:48:25.436Z,37.70
2023-05-07T11:50:57.406Z,37.60
2023-05-07T11:53:37.924Z,37.60
2023-05-07T11:56:13.537Z,37.40
2023-05-07T11:58:45.257Z,37.50
2023-05-07T12:01:16.618Z,37.30
2023-05-07T12:03:48.824Z,37.30
2023-05-07T12:06:19.996Z,37.30
2023-05-07T12:08:50.271Z,37.20
2023-05-07T12:11:28.633Z,37.30
2023-05-07T12:13:59.843Z,37.10
2023-05-07T12:16:30.582Z,37.10
2023-05-07T12:19:01.816Z,36.90
2023-05-07T12:21:35.153Z,37.00
2023-05-07T12:24:05.303Z,37.00
2023-05-07T12:26:39.917Z,36.90
2023-05-07T12:29:10.644Z,36.90
2023-05-07T12:31:44.389Z,36.90
2023-05-07T12:34:15.053Z,36.80
2023-05-07T12:36:47.687Z,36.70
2023-05-07T12:39:17.865Z,36.70
2023-05-07T12:42:01.311Z,36.60
2023-05-07T12:44:36.983Z,36.50
2023-05-07T12:47:07.038Z,36.40
2023-05-07T12:49:41.263Z,36.30
2023-05-07T12:52:13.320Z,36.30
2023-05-07T12:54:43.220Z,36.40
2023-05-07T12:57:13.515Z,36.30
2023-05-07T12:59:44.826Z,36.30
2023-05-07T13:02:14.720Z,36.20
2023-05-07T13:04:45.012Z,36.30
2023-05-07T13:07:15.056Z,36.30
2023-05-07T13:09:44.779Z,36.30
2023-05-07T13:12:14.607Z,36.10
2023-05-07T13:14:44.174Z,36.20
2023-05-07T13:17:14.201Z,36.20
2023-05-07T13:19:43.842Z,36.10
2023-05-07T13:22:13.806Z,36.20
2023-05-07T13:24:45.526Z,36.10
2023-05-07T13:27:15.530Z,36.10
2023-05-07T13:29:46.842Z,35.90
2023-05-07T13:32:16.556Z,35.90
2023-05-07T13:34:46.611Z,35.90
2023-05-07T13:37:16.241Z,35.90
2023-05-07T13:39:47.016Z,35.90
2023-05-07T13:42:16.634Z,35.80
2023-05-07T13:44:46.824Z,35.80
2023-05-07T13:47:19.531Z,35.70
2023-05-07T13:49:51.985Z,35.70
2023-05-07T13:52:22.916Z,35.70
2023-05-07T13:54:54.748Z,35.70
2023-05-07T13:57:24.622Z,35.60
2023-05-07T13:59:54.210Z,35.60
2023-05-07T14:02:24.315Z,35.60
2023-05-07T14:04:53.995Z,35.50
2023-05-07T14:07:23.819Z,35.50
2023-05-07T14:09:53.496Z,35.60
2023-05-07T14:12:23.435Z,35.50
2023-05-07T14:14:56.040Z,35.40
2023-05-07T14:17:27.812Z,35.40
2023-05-07T14:19:57.873Z,35.30
2023-05-07T14:22:27.450Z,35.20
2023-05-07T14:25:06.323Z,35.10
2023-05-07T14:27:37.830Z,35.00
2023-05-07T14:30:08.572Z,34.90
2023-05-07T14:32:38.701Z,35.00
2023-05-07T14:35:08.497Z,35.00
2023-05-07T14:37:39.515Z,35.00
2023-05-07T14:40:10.211Z,34.90
2023-05-07T14:42:43.046Z,35.00
2023-05-07T14:45:16.107Z,35.00
2023-05-07T14:47:46.191Z,35.10
2023-05-07T14:50:15.893Z,35.00
2023-05-07T14:52:45.710Z,34.90
2023-05-07T14:55:15.644Z,35.00
2023-05-07T14:57:45.575Z,34.90
2023-05-07T15:00:15.959Z,34.90
2023-05-07T15:02:46.004Z,34.90
2023-05-07T15:05:19.977Z,34.80
2023-05-07T15:07:50.062Z,34.80
2023-05-07T15:10:20.556Z,34.90
2023-05-07T15:12:50.216Z,34.90
2023-05-07T15:15:20.310Z,34.80
2023-05-07T15:17:50.696Z,34.80
2023-05-07T15:20:20.827Z,34.70
2023-05-07T15:22:50.493Z,34.70
2023-05-07T15:25:20.721Z,34.70
2023-05-07T15:27:51.087Z,34.80
2023-05-07T15:30:22.429Z,34.70
2023-05-07T15:32:53.220Z,34.70
2023-05-07T15:35:24.372Z,34.70
2023-05-07T15:38:01.076Z,34.70
2023-05-07T15:40:31.208Z,34.60
2023-05-07T15:43:00.878Z,34.70
2023-05-07T15:45:36.152Z,34.60
2023-05-07T15:48:09.281Z,34.60
2023-05-07T15:50:39.939Z,34.60
2023-05-07T15:53:10.271Z,34.50
2023-05-07T15:55:40.515Z,34.50
2023-05-07T15:58:10.091Z,34.50
2023-05-07T16:00:42.653Z,34.60
2023-05-07T16:03:13.080Z,34.60
2023-05-07T16:05:42.995Z,34.50
2023-05-07T16:08:13.013Z,34.60
2023-05-07T16:10:42.644Z,34.50
2023-05-07T16:13:13.252Z,34.50
2023-05-07T16:15:43.397Z,34.50
2023-05-07T16:18:13.885Z,34.50
2023-05-07T16:20:44.620Z,34.50
2023-05-07T16:23:14.727Z,34.50
2023-05-07T16:25:44.659Z,34.50
2023-05-07T16:28:18.234Z,34.50
2023-05-07T16:30:48.206Z,34.50
2023-05-07T16:33:17.823Z,34.40
2023-05-07T16:35:53.412Z,34.30
2023-05-07T16:38:23.241Z,34.30
2023-05-07T16:40:52.971Z,34.20
2023-05-07T16:43:23.623Z,34.20
2023-05-07T16:45:54.027Z,34.20
2023-05-07T16:48:23.974Z,34.20
2023-05-07T16:50:54.036Z,34.30
2023-05-07T16:53:23.689Z,34.10
2023-05-07T16:55:57.708Z,34.10
2023-05-07T16:58:29.556Z,34.10
2023-05-07T17:00:59.340Z,34.10
2023-05-07T17:03:30.438Z,34.00
2023-05-07T17:06:01.883Z,34.00
2023-05-07T17:08:31.792Z,33.80
2023-05-07T17:11:01.363Z,33.90
2023-05-07T17:13:31.412Z,33.80
2023-05-07T17:16:01.168Z,33.80
2023-05-07T17:18:31.042Z,33.80
2023-05-07T17:21:00.904Z,33.90
2023-05-07T17:23:30.957Z,33.80
2023-05-07T17:26:00.624Z,33.80
2023-05-07T17:28:31.982Z,33.80
2023-05-07T17:31:03.274Z,33.60
2023-05-07T17:33:36.041Z,33.60
2023-05-07T17:36:06.270Z,33.80
2023-05-07T17:38:36.337Z,33.70
2023-05-07T17:41:06.137Z,33.60
2023-05-07T17:43:35.738Z,33.70
2023-05-07T17:46:05.704Z,33.60
2023-05-07T17:48:35.355Z,33.60
2023-05-07T17:51:06.002Z,33.60
2023-05-07T17:53:35.616Z,33.50
2023-05-07T17:56:05.697Z,33.60
2023-05-07T17:58:39.162Z,33.60
2023-05-07T18:01:24.670Z,33.50
2023-05-07T18:03:54.408Z,33.50
2023-05-07T18:06:24.740Z,33.40
2023-05-07T18:08:55.843Z,33.30
2023-05-07T18:11:26.354Z,33.40
2023-05-07T18:13:56.004Z,33.30
2023-05-07T18:16:25.836Z,33.30
2023-05-07T18:18:56.160Z,33.30
2023-05-07T18:21:26.168Z,33.30
2023-05-07T18:23:55.808Z,33.30
2023-05-07T18:26:25.710Z,33.30
2023-05-07T18:28:56.103Z,33.20
2023-05-07T18:31:25.949Z,33.20
2023-05-07T18:33:57.358Z,33.20
2023-05-07T18:36:28.406Z,33.20
2023-05-07T18:38:58.314Z,33.10
2023-05-07T18:41:28.061Z,33.20
2023-05-07T18:43:58.108Z,33.20
2023-05-07T18:46:27.830Z,33.20
2023-05-07T18:48:58.023Z,33.20
2023-05-07T18:51:28.791Z,33.10
2023-05-07T18:54:03.574Z,33.20
2023-05-07T18:56:33.698Z,33.20
2023-05-07T18:59:03.374Z,33.10
2023-05-07T19:01:33.264Z,33.00
2023-05-07T19:04:02.979Z,33.00
2023-05-07T19:06:33.614Z,32.90
2023-05-07T19:09:04.009Z,32.90
2023-05-07T19:11:33.847Z,33.00
2023-05-07T19:14:04.755Z,33.00
2023-05-07T19:16:35.169Z,32.80
2023-05-07T19:19:05.084Z,33.00
2023-05-07T19:21:35.080Z,33.00
2023-05-07T19:24:04.781Z,32.90
2023-05-07T19:26:36.373Z,33.00
2023-05-07T19:29:17.287Z,32.90
2023-05-07T19:31:48.285Z,33.00
2023-05-07T19:34:18.024Z,32.90
2023-05-07T19:36:47.899Z,32.90
2023-05-07T19:39:18.583Z,32.90
2023-05-07T19:41:48.608Z,32.90
2023-05-07T19:44:18.257Z,32.80
2023-05-07T19:46:49.270Z,32.80
2023-05-07T19:49:19.375Z,32.80
2023-05-07T19:51:49.649Z,32.70
2023-05-07T19:54:19.309Z,32.80
2023-05-07T19:56:49.258Z,32.80
2023-05-07T19:59:18.940Z,32.80
2023-05-07T20:01:49.002Z,32.90
2023-05-07T20:04:18.647Z,32.90
2023-05-07T20:06:48.440Z,32.80
2023-05-07T20:09:18.097Z,32.70
2023-05-07T20:11:48.136Z,32.60
2023-05-07T20:14:17.671Z,32.60
2023-05-07T20:16:47.469Z,32.60
2023-05-07T20:19:17.253Z,32.60
2023-05-07T20:21:47.288Z,32.60
2023-05-07T20:24:18.261Z,32.60
2023-05-07T20:26:48.676Z,32.50
2023-05-07T20:29:18.936Z,32.50
2023-05-07T20:31:49.075Z,32.40
2023-05-07T20:34:18.699Z,32.40
2023-05-07T20:36:48.741Z,32.40
2023-05-07T20:39:18.470Z,32.40
2023-05-07T20:41:48.721Z,32.40
2023-05-07T20:44:18.789Z,32.30
2023-05-07T20:46:49.205Z,32.30
2023-05-07T20:49:19.022Z,32.30
2023-05-07T20:51:49.115Z,32.20
2023-05-07T20:54:19.222Z,32.20
2023-05-07T20:56:49.085Z,32.10
2023-05-07T20:59:18.798Z,32.10
2023-05-07T21:01:48.899Z,32.00
2023-05-07T21:04:18.924Z,32.10
2023-05-07T21:06:48.885Z,32.20
2023-05-07T21:09:18.495Z,32.10
2023-05-07T21:11:48.523Z,32.10
2023-05-07T21:14:18.128Z,32.00
2023-05-07T21:16:48.266Z,32.00
2023-05-07T21:19:17.944Z,32.00
2023-05-07T21:21:47.934Z,32.00
2023-05-07T21:24:17.614Z,31.90
2023-05-07T21:26:47.477Z,31.80
2023-05-07T21:29:17.260Z,31.90
2023-05-07T21:31:47.326Z,31.90
2023-05-07T21:34:17.260Z,31.90
2023-05-07T21:36:47.106Z,31.90
2023-05-07T21:39:16.842Z,31.90
2023-05-07T21:41:46.944Z,31.90
2023-05-07T21:44:16.698Z,31.80
2023-05-07T21:46:46.615Z,31.90
2023-05-07T21:49:16.452Z,31.80
2023-05-07T21:51:46.529Z,31.80
2023-05-07T21:54:17.398Z,31.80
2023-05-07T21:56:48.765Z,31.70
2023-05-07T21:59:20.170Z,31.70
2023-05-07T22:01:50.151Z,31.70
2023-05-07T22:04:20.204Z,31.80
2023-05-07T22:06:49.916Z,31.60
2023-05-07T22:09:19.903Z,31.60
2023-05-07T22:11:49.602Z,31.70
2023-05-07T22:14:21.100Z,31.70
2023-05-07T22:16:51.412Z,31.60
2023-05-07T22:19:21.309Z,31.70
2023-05-07T22:21:51.332Z,31.70
2023-05-07T22:24:21.075Z,31.70
2023-05-07T22:26:50.885Z,31.70
2023-05-07T22:29:22.140Z,31.60
2023-05-07T22:31:53.037Z,31.70
2023-05-07T22:34:22.723Z,31.60
2023-05-07T22:36:52.499Z,31.60
2023-05-07T22:39:22.303Z,31.60
2023-05-07T22:41:52.392Z,31.50
2023-05-07T22:44:21.971Z,31.50
2023-05-07T22:46:51.697Z,31.50
2023-05-07T22:49:21.359Z,31.50
2023-05-07T22:51:51.329Z,31.50
2023-05-07T22:54:21.396Z,31.50
2023-05-07T22:56:54.024Z,31.50
2023-05-07T22:59:24.058Z,31.40
2023-05-07T23:01:53.874Z,31.50
2023-05-07T23:04:24.066Z,31.50
2023-05-07T23:06:53.768Z,31.40
2023-05-07T23:09:23.601Z,31.50
2023-05-07T23:11:53.163Z,31.50
2023-05-07T23:14:24.434Z,31.50
2023-05-07T23:16:54.528Z,31.50
2023-05-07T23:19:24.476Z,31.40
2023-05-07T23:21:54.749Z,31.40
2023-05-07T23:24:24.390Z,31.40
2023-05-07T23:26:54.268Z,31.40
2023-05-07T23:29:23.951Z,31.50
2023-05-07T23:31:54.673Z,31.60
2023-05-07T23:34:25.288Z,31.70
2023-05-07T23:36:55.504Z,31.70
2023-05-07T23:39:25.636Z,31.70
2023-05-07T23:41:55.314Z,31.70
2023-05-07T23:44:25.143Z,31.70
2023-05-07T23:46:55.428Z,31.70
2023-05-07T23:49:26.452Z,31.70
2023-05-07T23:51:56.294Z,31.70
2023-05-07T23:54:26.497Z,31.50
2023-05-07T23:56:56.516Z,31.40
2023-05-07T23:59:26.551Z,31.20
